createdAt,value
2019-04-14T00:01:17.238Z,-3.50
2019-04-14T00:03:50.178Z,-3.60
2019-04-14T00:06:20.135Z,-3.60
2019-04-14T00:08:50.059Z,-3.60
2019-04-14T00:11:19.137Z,-3.60
2019-04-14T00:13:50.230Z,-3.70
2019-04-14T00:16:18.819Z,-3.70
2019-04-14T00:18:47.298Z,-3.70
2019-04-14T00:21:15.757Z,-3.80
2019-04-14T00:23:45.523Z,-3.90
2019-04-14T00:26:31.696Z,-3.90
2019-04-14T00:29:00.266Z,-3.80
2019-04-14T00:31:30.589Z,-3.80
2019-04-14T00:34:00.928Z,-3.90
2019-04-14T00:36:34.817Z,-3.80
2019-04-14T00:39:05.341Z,-4.00
2019-04-14T00:41:43.870Z,-4.00
2019-04-14T00:44:16.966Z,-4.00
2019-04-14T00:46:47.495Z,-4.00
2019-04-14T00:49:16.047Z,-3.90
2019-04-14T00:51:45.977Z,-4.00
2019-04-14T00:54:15.446Z,-4.10
2019-04-14T00:56:44.056Z,-4.00
2019-04-14T00:59:13.551Z,-4.10
2019-04-14T01:01:42.172Z,-4.00
2019-04-14T01:04:12.152Z,-4.10
2019-04-14T01:06:41.110Z,-4.20
2019-04-14T01:09:12.845Z,-4.20
2019-04-14T01:11:42.144Z,-4.10
2019-04-14T01:14:10.712Z,-4.20
2019-04-14T01:16:39.444Z,-4.20
2019-04-14T01:19:09.069Z,-4.20
2019-04-14T01:21:39.112Z,-4.20
2019-04-14T01:24:07.962Z,-4.20
2019-04-14T01:26:37.728Z,-4.20
2019-04-14T01:29:06.303Z,-4.40
2019-04-14T01:31:35.992Z,-4.50
2019-04-14T01:34:04.575Z,-4.40
2019-04-14T01:36:33.052Z,-4.40
2019-04-14T01:39:02.522Z,-4.40
2019-04-14T01:41:31.107Z,-4.50
2019-04-14T01:44:00.346Z,-4.40
2019-04-14T01:46:32.266Z,-4.40
2019-04-14T01:48:59.188Z,-4.40
2019-04-14T01:51:41.883Z,-4.50
2019-04-14T01:54:14.990Z,-4.40
2019-04-14T01:56:49.241Z,-4.40
2019-04-14T01:59:19.764Z,-4.40
2019-04-14T02:01:50.095Z,-4.40
2019-04-14T02:04:18.846Z,-4.50
2019-04-14T02:06:48.397Z,-4.40
2019-04-14T02:09:18.561Z,-4.50
2019-04-14T02:11:48.730Z,-4.50
2019-04-14T02:14:17.419Z,-4.50
2019-04-14T02:16:52.169Z,-4.50
2019-04-14T02:19:17.701Z,-4.70
2019-04-14T02:21:47.663Z,-4.60
2019-04-14T02:24:17.737Z,-4.50
2019-04-14T02:26:47.926Z,-4.50
2019-04-14T02:29:16.815Z,-4.70
2019-04-14T02:32:13.871Z,-4.60
2019-04-14T02:34:47.990Z,-4.80
2019-04-14T02:37:24.384Z,-4.60
2019-04-14T02:39:49.952Z,-4.60
2019-04-14T02:42:28.266Z,-4.70
2019-04-14T02:47:47.243Z,-4.60
2019-04-14T02:49:44.106Z,-4.40
2019-04-14T02:52:20.435Z,-4.50
2019-04-14T02:54:53.720Z,-4.60
2019-04-14T02:57:19.975Z,-4.60
2019-04-14T02:59:44.618Z,-4.60
2019-04-14T03:02:24.760Z,-4.60
2019-04-14T03:04:45.343Z,-4.60
2019-04-14T03:07:23.178Z,-4.60
2019-04-14T03:09:53.750Z,-4.60
2019-04-14T03:12:16.411Z,-4.70
2019-04-14T03:14:47.704Z,-4.70
2019-04-14T03:22:55.772Z,-4.70
2019-04-14T03:25:09.687Z,-4.80
2019-04-14T03:27:55.148Z,-4.70
2019-04-14T03:36:05.371Z,-4.60
2019-04-14T03:38:00.975Z,-4.60
2019-04-14T03:43:04.019Z,-4.70
2019-04-14T03:45:35.972Z,-4.60
2019-04-14T03:50:29.166Z,-4.60
2019-04-14T03:53:09.920Z,-4.70
2019-04-14T03:55:20.243Z,-4.60
2019-04-14T03:57:37.394Z,-4.70
2019-04-14T04:00:07.471Z,-4.70
2019-04-14T04:02:36.382Z,-4.60
2019-04-14T04:05:06.464Z,-4.70
2019-04-14T04:07:35.049Z,-4.80
2019-04-14T04:10:07.228Z,-4.70
2019-04-14T04:12:35.895Z,-4.80
2019-04-14T04:15:06.217Z,-4.90
2019-04-14T04:17:39.404Z,-4.90
2019-04-14T04:20:26.310Z,-4.80
2019-04-14T04:22:56.907Z,-4.80
2019-04-14T04:25:27.004Z,-5.00
2019-04-14T04:27:57.099Z,-5.00
2019-04-14T04:30:30.117Z,-4.90
2019-04-14T04:33:19.665Z,-4.90
2019-04-14T04:35:58.907Z,-5.00
2019-04-14T04:38:29.282Z,-5.00
2019-04-14T04:40:57.739Z,-5.00
2019-04-14T04:43:27.584Z,-5.00
2019-04-14T04:45:56.215Z,-5.10
2019-04-14T04:48:24.693Z,-5.00
2019-04-14T04:50:54.225Z,-5.00
2019-04-14T04:53:22.876Z,-4.90
2019-04-14T04:55:52.481Z,-4.90
2019-04-14T04:58:21.617Z,-4.90
2019-04-14T05:00:52.568Z,-4.90
2019-04-14T05:03:21.144Z,-5.10
2019-04-14T05:06:27.135Z,-4.90
2019-04-14T05:09:07.915Z,-4.90
2019-04-14T05:11:38.427Z,-4.80
2019-04-14T05:14:08.855Z,-4.80
2019-04-14T05:16:37.651Z,-4.80
2019-04-14T05:19:18.495Z,-4.70
2019-04-14T05:21:36.657Z,-4.60
2019-04-14T05:24:07.037Z,-4.60
2019-04-14T05:26:35.731Z,-4.70
2019-04-14T05:29:04.326Z,-4.50
2019-04-14T05:31:34.375Z,-4.40
2019-04-14T05:34:02.845Z,-4.30
2019-04-14T05:36:32.488Z,-4.20
2019-04-14T05:39:01.107Z,-4.30
2019-04-14T05:41:30.781Z,-4.20
2019-04-14T05:44:01.520Z,-3.80
2019-04-14T05:46:29.675Z,-3.60
2019-04-14T05:48:58.143Z,-3.90
2019-04-14T05:51:28.315Z,-4.00
2019-04-14T05:53:56.927Z,-3.70
2019-04-14T05:56:25.717Z,-3.40
2019-04-14T05:58:54.238Z,-3.00
2019-04-14T06:01:22.972Z,-2.60
2019-04-14T06:03:51.825Z,-2.90
2019-04-14T06:06:20.440Z,-2.60
2019-04-14T06:08:48.971Z,-2.30
2019-04-14T06:11:17.742Z,-1.90
2019-04-14T06:13:46.204Z,-1.80
2019-04-14T06:16:15.023Z,-2.20
2019-04-14T06:18:43.485Z,-2.70
2019-04-14T06:21:11.961Z,-2.60
2019-04-14T06:23:40.415Z,-2.00
2019-04-14T06:26:09.169Z,-1.70
2019-04-14T06:28:37.697Z,-1.40
2019-04-14T06:31:10.540Z,-1.70
2019-04-14T06:33:41.683Z,-1.10
2019-04-14T06:36:11.800Z,-1.70
2019-04-14T06:38:47.878Z,-1.70
2019-04-14T06:41:18.099Z,-2.10
2019-04-14T06:43:49.166Z,-1.80
2019-04-14T06:46:17.141Z,-1.70
2019-04-14T06:48:45.623Z,-1.70
2019-04-14T06:51:14.100Z,-1.80
2019-04-14T06:53:42.640Z,-1.90
2019-04-14T06:56:11.112Z,-1.70
2019-04-14T06:58:39.823Z,-1.80
2019-04-14T07:01:08.305Z,-1.80
2019-04-14T07:03:36.839Z,-1.80
2019-04-14T07:06:05.611Z,-1.80
2019-04-14T07:08:34.071Z,-1.80
2019-04-14T07:11:02.535Z,-1.80
2019-04-14T07:13:31.011Z,-1.60
2019-04-14T07:15:59.754Z,-1.60
2019-04-14T07:18:28.221Z,-1.60
2019-04-14T07:20:57.040Z,-1.20
2019-04-14T07:23:25.587Z,-1.10
2019-04-14T07:25:54.052Z,-1.30
2019-04-14T07:28:22.794Z,-1.40
2019-04-14T07:30:59.366Z,-1.20
2019-04-14T07:33:29.479Z,-0.80
2019-04-14T07:36:02.293Z,-1.00
2019-04-14T07:38:32.410Z,-1.10
2019-04-14T07:41:02.941Z,-1.10
2019-04-14T07:43:35.851Z,-0.60
2019-04-14T07:46:09.116Z,-0.20
2019-04-14T07:48:48.880Z,-0.10
2019-04-14T07:51:25.327Z,0.20
2019-04-14T07:53:55.438Z,0.00
2019-04-14T07:56:25.535Z,-0.60
2019-04-14T07:59:07.542Z,-0.70
2019-04-14T08:01:37.993Z,-0.60
2019-04-14T08:04:14.154Z,-0.70
2019-04-14T08:06:44.254Z,-0.20
2019-04-14T08:09:13.071Z,0.20
2019-04-14T08:11:41.519Z,0.40
2019-04-14T08:14:09.986Z,0.40
2019-04-14T08:16:38.732Z,0.00
2019-04-14T08:19:07.627Z,0.20
2019-04-14T08:21:36.083Z,0.50
2019-04-14T08:24:04.903Z,0.50
2019-04-14T08:26:33.359Z,0.60
2019-04-14T08:29:02.181Z,0.20
2019-04-14T08:31:30.703Z,0.00
2019-04-14T08:33:59.178Z,-0.20
2019-04-14T08:36:27.954Z,-0.20
2019-04-14T08:38:56.429Z,-0.10
2019-04-14T08:41:25.455Z,0.00
2019-04-14T08:43:55.571Z,0.10
2019-04-14T08:46:34.767Z,0.30
2019-04-14T08:49:17.152Z,0.50
2019-04-14T08:51:52.977Z,0.60
2019-04-14T08:54:26.012Z,0.40
2019-04-14T08:56:59.131Z,0.40
2019-04-14T08:59:45.715Z,0.60
2019-04-14T09:02:28.227Z,0.50
2019-04-14T09:05:13.907Z,0.60
2019-04-14T09:07:46.625Z,0.60
2019-04-14T09:10:16.813Z,0.70
2019-04-14T09:12:50.071Z,0.90
2019-04-14T09:15:18.544Z,1.10
2019-04-14T09:17:47.287Z,1.60
2019-04-14T09:20:15.831Z,2.00
2019-04-14T09:22:44.291Z,2.10
2019-04-14T09:25:13.044Z,2.00
2019-04-14T09:27:41.490Z,1.90
2019-04-14T09:30:10.423Z,1.80
2019-04-14T09:32:39.215Z,2.00
2019-04-14T09:35:08.412Z,2.20
2019-04-14T09:37:36.866Z,1.90
2019-04-14T09:40:05.764Z,1.20
2019-04-14T09:42:34.235Z,1.00
2019-04-14T09:45:02.700Z,1.20
2019-04-14T09:47:31.248Z,1.20
2019-04-14T09:49:59.695Z,1.60
2019-04-14T09:52:28.169Z,1.50
2019-04-14T09:54:56.619Z,1.30
2019-04-14T09:57:25.095Z,1.70
2019-04-14T09:59:53.555Z,1.90
2019-04-14T10:02:22.374Z,1.40
2019-04-14T10:04:50.840Z,1.60
2019-04-14T10:07:19.302Z,1.40
2019-04-14T10:09:48.140Z,1.60
2019-04-14T10:12:17.040Z,1.80
2019-04-14T10:14:45.498Z,1.60
2019-04-14T10:17:14.311Z,1.70
2019-04-14T10:19:42.769Z,1.70
2019-04-14T10:22:11.310Z,1.80
2019-04-14T10:24:40.080Z,2.20
2019-04-14T10:27:08.627Z,2.50
2019-04-14T10:29:37.340Z,2.70
2019-04-14T10:32:05.886Z,2.30
2019-04-14T10:34:34.340Z,2.20
2019-04-14T10:37:02.841Z,1.70
2019-04-14T10:39:31.340Z,2.10
2019-04-14T10:42:00.092Z,1.70
2019-04-14T10:44:28.554Z,2.30
2019-04-14T10:46:57.375Z,1.90
2019-04-14T10:49:25.922Z,1.70
2019-04-14T10:51:54.747Z,1.90
2019-04-14T10:54:23.215Z,1.70
2019-04-14T10:56:51.668Z,1.80
2019-04-14T10:59:20.411Z,2.00
2019-04-14T11:01:48.872Z,2.50
2019-04-14T11:04:17.690Z,2.50
2019-04-14T11:06:57.431Z,2.00
2019-04-14T11:09:26.167Z,2.20
2019-04-14T11:11:54.619Z,2.20
2019-04-14T11:14:23.398Z,2.20
2019-04-14T11:16:52.196Z,2.10
2019-04-14T11:19:20.674Z,2.20
2019-04-14T11:21:49.126Z,2.70
2019-04-14T11:24:17.604Z,2.70
2019-04-14T11:26:46.064Z,3.20
2019-04-14T11:29:14.923Z,2.60
2019-04-14T11:31:47.715Z,2.20
2019-04-14T11:34:17.834Z,2.30
2019-04-14T11:36:50.983Z,2.10
2019-04-14T11:39:21.103Z,2.40
2019-04-14T11:41:49.639Z,2.40
2019-04-14T11:44:18.179Z,2.60
2019-04-14T11:46:46.921Z,2.60
2019-04-14T11:49:15.714Z,2.80
2019-04-14T11:51:54.688Z,3.30
2019-04-14T11:54:15.139Z,3.40
2019-04-14T11:56:43.602Z,3.30
2019-04-14T11:59:12.136Z,3.60
2019-04-14T12:01:58.811Z,3.80
2019-04-14T12:04:31.664Z,3.20
2019-04-14T12:07:07.875Z,3.50
2019-04-14T12:09:40.920Z,3.00
2019-04-14T12:12:10.135Z,3.50
2019-04-14T12:14:38.943Z,3.00
2019-04-14T12:17:07.415Z,3.40
2019-04-14T12:19:36.226Z,3.50
2019-04-14T12:22:08.645Z,3.20
2019-04-14T12:24:35.311Z,3.10
2019-04-14T12:27:04.043Z,3.40
2019-04-14T12:29:32.611Z,3.20
2019-04-14T12:32:01.924Z,3.10
2019-04-14T12:34:30.389Z,3.20
2019-04-14T12:36:58.859Z,3.20
2019-04-14T12:39:27.319Z,3.50
2019-04-14T12:42:07.430Z,3.40
2019-04-14T12:44:37.863Z,3.70
2019-04-14T12:47:10.700Z,3.90
2019-04-14T12:49:41.075Z,3.10
2019-04-14T12:52:21.623Z,3.00
2019-04-14T12:54:46.899Z,3.00
2019-04-14T12:57:17.380Z,3.20
2019-04-14T12:59:56.119Z,3.00
2019-04-14T13:02:26.236Z,3.10
2019-04-14T13:04:55.468Z,3.00
2019-04-14T13:07:24.523Z,3.20
2019-04-14T13:09:52.985Z,2.80
2019-04-14T13:12:21.538Z,2.70
2019-04-14T13:14:50.284Z,2.90
2019-04-14T13:17:19.010Z,3.00
2019-04-14T13:19:47.771Z,2.80
2019-04-14T13:22:16.663Z,2.70
2019-04-14T13:24:45.460Z,2.60
2019-04-14T13:27:14.012Z,2.80
2019-04-14T13:29:42.463Z,2.90
2019-04-14T13:32:10.943Z,2.80
2019-04-14T13:34:39.399Z,2.60
2019-04-14T13:37:08.192Z,2.90
2019-04-14T13:39:36.657Z,3.10
2019-04-14T13:42:05.191Z,2.80
2019-04-14T13:44:33.960Z,2.80
2019-04-14T13:47:02.858Z,3.00
2019-04-14T13:49:31.406Z,3.00
2019-04-14T13:52:00.234Z,2.90
2019-04-14T13:54:28.782Z,2.90
2019-04-14T13:56:57.235Z,3.00
2019-04-14T13:59:25.994Z,3.20
2019-04-14T14:01:54.783Z,3.00
2019-04-14T14:04:23.268Z,3.00
2019-04-14T14:06:51.731Z,3.20
2019-04-14T14:09:20.276Z,3.20
2019-04-14T14:11:52.776Z,3.30
2019-04-14T14:14:22.895Z,3.20
2019-04-14T14:16:52.998Z,3.10
2019-04-14T14:19:23.181Z,3.00
2019-04-14T14:21:53.351Z,2.90
2019-04-14T14:24:35.929Z,3.10
2019-04-14T14:27:06.560Z,3.10
2019-04-14T14:29:35.107Z,3.10
2019-04-14T14:32:05.495Z,3.10
2019-04-14T14:34:34.035Z,3.10
2019-04-14T14:37:02.563Z,3.20
2019-04-14T14:39:31.034Z,3.10
2019-04-14T14:41:59.831Z,3.20
2019-04-14T14:44:36.299Z,3.50
2019-04-14T14:47:21.516Z,3.60
2019-04-14T14:50:08.075Z,3.30
2019-04-14T14:52:37.799Z,3.40
2019-04-14T14:55:07.383Z,3.40
2019-04-14T14:57:35.831Z,3.10
2019-04-14T15:00:09.069Z,2.90
2019-04-14T15:02:37.528Z,3.10
2019-04-14T15:05:07.328Z,3.40
2019-04-14T15:07:36.059Z,3.30
2019-04-14T15:10:07.106Z,3.50
2019-04-14T15:12:35.559Z,3.50
2019-04-14T15:15:05.675Z,3.70
2019-04-14T15:17:34.124Z,3.80
2019-04-14T15:20:02.889Z,4.00
2019-04-14T15:22:31.415Z,3.70
2019-04-14T15:25:00.192Z,3.70
2019-04-14T15:27:28.678Z,3.40
2019-04-14T15:29:57.435Z,3.40
2019-04-14T15:32:25.946Z,3.50
2019-04-14T15:34:54.823Z,3.50
2019-04-14T15:37:23.283Z,3.50
2019-04-14T15:39:51.760Z,3.30
2019-04-14T15:42:20.219Z,3.50
2019-04-14T15:44:49.072Z,3.30
2019-04-14T15:47:17.871Z,3.20
2019-04-14T15:49:46.654Z,3.40
2019-04-14T15:52:15.127Z,3.10
2019-04-14T15:54:43.935Z,3.40
2019-04-14T15:57:14.063Z,3.50
2019-04-14T15:59:56.260Z,3.40
2019-04-14T16:02:32.091Z,3.30
2019-04-14T16:05:02.544Z,3.10
2019-04-14T16:07:41.900Z,3.10
2019-04-14T16:10:12.317Z,3.30
2019-04-14T16:12:42.495Z,3.40
2019-04-14T16:15:29.443Z,3.20
2019-04-14T16:17:59.967Z,3.20
2019-04-14T16:20:30.071Z,3.30
2019-04-14T16:22:58.884Z,3.40
2019-04-14T16:25:44.255Z,3.20
2019-04-14T16:28:14.359Z,3.30
2019-04-14T16:30:47.367Z,3.00
2019-04-14T16:33:23.627Z,3.00
2019-04-14T16:35:52.630Z,3.20
2019-04-14T16:38:21.091Z,3.10
2019-04-14T16:40:49.908Z,3.10
2019-04-14T16:43:19.003Z,3.10
2019-04-14T16:45:47.468Z,3.20
2019-04-14T16:48:16.288Z,3.30
2019-04-14T16:50:44.816Z,3.20
2019-04-14T16:53:17.860Z,3.30
2019-04-14T16:55:48.292Z,3.50
2019-04-14T16:58:18.724Z,3.40
2019-04-14T17:00:58.156Z,3.20
2019-04-14T17:03:26.948Z,3.30
2019-04-14T17:05:55.668Z,3.40
2019-04-14T17:08:24.143Z,3.30
2019-04-14T17:10:52.592Z,3.30
2019-04-14T17:13:22.073Z,3.30
2019-04-14T17:16:08.915Z,3.20
2019-04-14T17:18:45.272Z,3.10
2019-04-14T17:21:15.715Z,3.10
2019-04-14T17:23:45.907Z,3.20
2019-04-14T17:26:27.876Z,3.00
2019-04-14T17:29:01.028Z,3.00
2019-04-14T17:31:34.111Z,2.90
2019-04-14T17:34:19.543Z,3.00
2019-04-14T17:36:58.963Z,3.00
2019-04-14T17:39:41.512Z,3.10
2019-04-14T17:42:23.839Z,3.30
2019-04-14T17:44:56.915Z,3.20
2019-04-14T17:47:33.291Z,3.30
2019-04-14T17:50:06.381Z,3.00
2019-04-14T17:52:42.478Z,3.00
2019-04-14T17:55:13.078Z,2.90
2019-04-14T17:57:52.814Z,3.10
2019-04-14T18:00:28.720Z,3.30
2019-04-14T18:02:59.099Z,3.20
2019-04-14T18:05:41.814Z,3.20
2019-04-14T18:08:11.983Z,3.10
2019-04-14T18:10:42.464Z,2.90
2019-04-14T18:13:15.275Z,3.00
2019-04-14T18:15:54.076Z,3.10
2019-04-14T18:18:36.385Z,3.00
2019-04-14T18:21:06.903Z,2.90
2019-04-14T18:23:35.687Z,2.90
2019-04-14T18:26:04.631Z,2.90
2019-04-14T18:28:34.727Z,2.80
2019-04-14T18:31:14.047Z,2.80
2019-04-14T18:33:59.682Z,2.80
2019-04-14T18:36:35.708Z,2.80
2019-04-14T18:39:08.903Z,2.90
2019-04-14T18:41:57.260Z,3.00
2019-04-14T18:44:45.863Z,3.10
2019-04-14T18:47:32.563Z,3.20
2019-04-14T18:50:05.436Z,3.20
2019-04-14T18:52:54.092Z,3.20
2019-04-14T18:55:27.292Z,3.10
2019-04-14T18:57:57.470Z,2.90
2019-04-14T19:00:33.526Z,2.90
2019-04-14T19:03:03.586Z,2.90
2019-04-14T19:05:32.048Z,2.80
2019-04-14T19:08:00.522Z,2.90
2019-04-14T19:10:29.248Z,2.90
2019-04-14T19:13:02.211Z,3.00
2019-04-14T19:15:32.311Z,2.90
2019-04-14T19:18:08.437Z,2.90
2019-04-14T19:20:38.602Z,2.80
2019-04-14T19:23:07.071Z,2.80
2019-04-14T19:25:35.528Z,2.80
2019-04-14T19:28:03.999Z,2.90
2019-04-14T19:30:32.460Z,2.90
2019-04-14T19:33:01.279Z,3.20
2019-04-14T19:35:30.067Z,3.00
2019-04-14T19:37:58.864Z,3.00
2019-04-14T19:40:27.759Z,3.40
2019-04-14T19:42:56.311Z,3.50
2019-04-14T19:45:25.135Z,3.60
2019-04-14T19:47:53.611Z,3.60
2019-04-14T19:50:22.419Z,3.60
2019-04-14T19:52:50.879Z,3.50
2019-04-14T19:55:20.560Z,3.00
2019-04-14T19:57:49.716Z,2.90
2019-04-14T20:00:18.603Z,2.90
2019-04-14T20:02:47.403Z,2.80
2019-04-14T20:05:16.195Z,2.90
2019-04-14T20:07:44.989Z,2.90
2019-04-14T20:10:13.680Z,2.90
2019-04-14T20:12:42.209Z,2.90
2019-04-14T20:15:12.571Z,2.90
2019-04-14T20:17:59.502Z,2.90
2019-04-14T20:20:49.251Z,2.80
2019-04-14T20:23:19.445Z,3.00
2019-04-14T20:26:06.095Z,2.90
2019-04-14T20:28:48.808Z,2.90
2019-04-14T20:31:28.245Z,2.90
2019-04-14T20:33:56.792Z,3.00
2019-04-14T20:36:25.317Z,3.10
2019-04-14T20:38:55.080Z,3.10
2019-04-14T20:41:23.812Z,3.00
2019-04-14T20:43:52.268Z,3.00
2019-04-14T20:46:20.750Z,2.90
2019-04-14T20:48:49.484Z,3.00
2019-04-14T20:51:17.956Z,3.10
2019-04-14T20:53:46.855Z,3.50
2019-04-14T20:56:15.662Z,3.70
2019-04-14T20:58:44.190Z,3.70
2019-04-14T21:01:13.835Z,3.80
2019-04-14T21:03:46.496Z,3.70
2019-04-14T21:06:19.427Z,3.50
2019-04-14T21:08:53.657Z,3.50
2019-04-14T21:11:38.759Z,3.30
2019-04-14T21:14:25.022Z,3.10
2019-04-14T21:16:55.207Z,3.20
2019-04-14T21:19:25.652Z,3.50
2019-04-14T21:21:56.084Z,3.60
2019-04-14T21:24:42.500Z,3.40
2019-04-14T21:27:16.387Z,3.70
2019-04-14T21:29:52.493Z,3.80
2019-04-14T21:32:22.670Z,3.80
2019-04-14T21:35:02.303Z,3.60
2019-04-14T21:37:39.907Z,3.60
2019-04-14T21:40:22.515Z,3.30
2019-04-14T21:42:50.994Z,3.40
2019-04-14T21:45:19.790Z,3.20
2019-04-14T21:47:51.340Z,3.00
2019-04-14T21:50:20.240Z,3.00
2019-04-14T21:52:49.953Z,3.00
2019-04-14T21:55:18.619Z,2.90
2019-04-14T21:57:49.291Z,3.00
2019-04-14T22:00:38.588Z,3.00
2019-04-14T22:03:12.540Z,3.00
2019-04-14T22:05:43.075Z,3.20
2019-04-14T22:08:14.776Z,3.20
2019-04-14T22:10:45.267Z,3.00
2019-04-14T22:13:14.268Z,3.20
2019-04-14T22:15:42.728Z,3.10
2019-04-14T22:18:11.216Z,3.00
2019-04-14T22:20:40.037Z,3.10
2019-04-14T22:23:10.464Z,3.10
2019-04-14T22:25:38.923Z,3.20
2019-04-14T22:28:07.745Z,3.40
2019-04-14T22:30:36.631Z,3.50
2019-04-14T22:33:05.533Z,3.30
2019-04-14T22:35:34.079Z,3.10
2019-04-14T22:38:02.563Z,3.00
2019-04-14T22:40:31.094Z,3.00
2019-04-14T22:42:59.986Z,2.90
2019-04-14T22:45:28.731Z,2.90
2019-04-14T22:47:57.567Z,3.00
2019-04-14T22:50:26.363Z,3.00
2019-04-14T22:52:54.888Z,3.00
2019-04-14T22:55:23.639Z,3.00
2019-04-14T22:57:52.436Z,3.00
2019-04-14T23:00:31.468Z,3.10
2019-04-14T23:03:01.572Z,3.20
2019-04-14T23:05:48.023Z,3.50
2019-04-14T23:08:33.399Z,3.60
2019-04-14T23:11:19.802Z,3.40
2019-04-14T23:14:06.547Z,3.50
2019-04-14T23:16:36.723Z,3.40
2019-04-14T23:19:07.099Z,3.20
2019-04-14T23:21:39.863Z,3.20
2019-04-14T23:24:10.311Z,3.20
2019-04-14T23:26:51.928Z,3.10
2019-04-14T23:29:10.653Z,3.20
2019-04-14T23:31:39.123Z,3.10
2019-04-14T23:34:07.576Z,3.10
2019-04-14T23:36:36.046Z,3.00
2019-04-14T23:39:07.984Z,3.10
2019-04-14T23:41:36.867Z,3.00
2019-04-14T23:44:05.666Z,3.10
2019-04-14T23:46:34.459Z,3.10
2019-04-14T23:49:02.924Z,3.10
2019-04-14T23:51:31.806Z,3.10
2019-04-14T23:54:00.272Z,3.30
2019-04-14T23:56:29.120Z,3.60
2019-04-14T23:58:57.848Z,3.70
